sensor_id;sensor_type;location;lat;lon;timestamp;temperature;humidity
83650;DHT22;73612;50.948;6.956;2024-01-06T00:19:08;7.80;94.80
83650;DHT22;73612;50.948;6.956;2024-01-06T00:21:46;7.80;95.00
83650;DHT22;73612;50.948;6.956;2024-01-06T00:24:15;7.90;95.40
83650;DHT22;73612;50.948;6.956;2024-01-06T00:29:24;7.90;95.40
83650;DHT22;73612;50.948;6.956;2024-01-06T00:32:08;7.90;95.50
83650;DHT22;73612;50.948;6.956;2024-01-06T00:34:38;7.80;95.70
83650;DHT22;73612;50.948;6.956;2024-01-06T18:56:28;4.60;99.90
83650;DHT22;73612;50.948;6.956;2024-01-06T19:04:12;7.30;99.90
83650;DHT22;73612;50.948;6.956;2024-01-06T19:06:38;9.60;99.90
83650;DHT22;73612;50.948;6.956;2024-01-06T19:09:06;11.80;99.90
83650;DHT22;73612;50.948;6.956;2024-01-06T19:11:33;12.50;99.90
83650;DHT22;73612;50.948;6.956;2024-01-06T19:14:00;13.30;99.90
83650;DHT22;73612;50.948;6.956;2024-01-06T19:16:28;13.90;99.60
83650;DHT22;73612;50.948;6.956;2024-01-06T19:18:55;14.60;98.10
83650;DHT22;73612;50.948;6.956;2024-01-06T19:21:22;15.00;97.20
83650;DHT22;73612;50.948;6.956;2024-01-06T19:23:50;15.40;96.70
83650;DHT22;73612;50.948;6.956;2024-01-06T19:26:17;15.80;96.70
83650;DHT22;73612;50.948;6.956;2024-01-06T19:28:44;15.80;96.60
83650;DHT22;73612;50.948;6.956;2024-01-06T19:31:11;16.00;95.30
83650;DHT22;73612;50.948;6.956;2024-01-06T19:33:38;16.40;91.50
83650;DHT22;73612;50.948;6.956;2024-01-06T19:36:06;16.60;90.50
83650;DHT22;73612;50.948;6.956;2024-01-06T19:38:32;16.60;90.50
83650;DHT22;73612;50.948;6.956;2024-01-06T19:40:59;16.70;89.60
83650;DHT22;73612;50.948;6.956;2024-01-06T19:43:26;16.80;88.70
83650;DHT22;73612;50.948;6.956;2024-01-06T19:45:53;17.00;87.00
83650;DHT22;73612;50.948;6.956;2024-01-06T19:48:20;16.90;86.90
83650;DHT22;73612;50.948;6.956;2024-01-06T19:50:47;17.10;86.50
83650;DHT22;73612;50.948;6.956;2024-01-06T19:53:14;17.10;85.70
83650;DHT22;73612;50.948;6.956;2024-01-06T19:55:42;17.20;85.70
83650;DHT22;73612;50.948;6.956;2024-01-06T19:58:09;17.20;85.90
83650;DHT22;73612;50.948;6.956;2024-01-06T20:00:36;17.30;86.30
83650;DHT22;73612;50.948;6.956;2024-01-06T20:03:04;17.30;86.60
83650;DHT22;73612;50.948;6.956;2024-01-06T20:05:31;17.30;86.90
83650;DHT22;73612;50.948;6.956;2024-01-06T20:07:57;17.40;87.60
83650;DHT22;73612;50.948;6.956;2024-01-06T20:10:24;17.40;87.90
83650;DHT22;73612;50.948;6.956;2024-01-06T20:12:50;17.50;88.20
83650;DHT22;73612;50.948;6.956;2024-01-06T20:15:17;17.50;88.20
83650;DHT22;73612;50.948;6.956;2024-01-06T20:17:44;17.50;88.10
83650;DHT22;73612;50.948;6.956;2024-01-06T20:20:11;17.50;88.00
83650;DHT22;73612;50.948;6.956;2024-01-06T20:22:37;17.50;87.70
83650;DHT22;73612;50.948;6.956;2024-01-06T20:50:53;13.30;64.70
83650;DHT22;73612;50.948;6.956;2024-01-06T20:53:23;4.20;98.20
83650;DHT22;73612;50.948;6.956;2024-01-06T20:55:52;4.00;98.60
83650;DHT22;73612;50.948;6.956;2024-01-06T20:58:24;3.90;99.10
83650;DHT22;73612;50.948;6.956;2024-01-06T21:00:54;3.90;99.50
83650;DHT22;73612;50.948;6.956;2024-01-06T21:03:22;3.80;99.70
83650;DHT22;73612;50.948;6.956;2024-01-06T21:05:56;3.80;99.90
83650;DHT22;73612;50.948;6.956;2024-01-06T21:08:23;3.80;99.90
83650;DHT22;73612;50.948;6.956;2024-01-06T21:11:02;3.70;99.90
83650;DHT22;73612;50.948;6.956;2024-01-06T21:13:43;3.70;99.90
83650;DHT22;73612;50.948;6.956;2024-01-06T21:16:13;3.70;99.90
83650;DHT22;73612;50.948;6.956;2024-01-06T21:18:48;3.70;99.90
83650;DHT22;73612;50.948;6.956;2024-01-06T21:21:18;3.70;99.90
83650;DHT22;73612;50.948;6.956;2024-01-06T21:24:04;3.60;99.90
83650;DHT22;73612;50.948;6.956;2024-01-06T21:46:15;3.50;99.90
83650;DHT22;73612;50.948;6.956;2024-01-06T21:48:45;3.50;99.90
83650;DHT22;73612;50.948;6.956;2024-01-06T21:51:15;3.60;99.90
83650;DHT22;73612;50.948;6.956;2024-01-06T21:54:00;3.60;99.90
83650;DHT22;73612;50.948;6.956;2024-01-06T21:56:33;3.60;99.90
83650;DHT22;73612;50.948;6.956;2024-01-06T21:59:14;3.50;99.90
83650;DHT22;73612;50.948;6.956;2024-01-06T22:04:26;3.60;99.90
83650;DHT22;73612;50.948;6.956;2024-01-06T22:06:56;3.60;99.90
83650;DHT22;73612;50.948;6.956;2024-01-06T22:09:35;3.60;99.90
83650;DHT22;73612;50.948;6.956;2024-01-06T22:12:12;3.60;99.90
83650;DHT22;73612;50.948;6.956;2024-01-06T22:15:00;3.50;99.90
83650;DHT22;73612;50.948;6.956;2024-01-06T22:17:27;3.50;99.90
83650;DHT22;73612;50.948;6.956;2024-01-06T22:22:39;3.50;99.90
83650;DHT22;73612;50.948;6.956;2024-01-06T22:25:08;3.50;99.90
83650;DHT22;73612;50.948;6.956;2024-01-06T22:27:35;3.60;99.90
83650;DHT22;73612;50.948;6.956;2024-01-06T22:32:52;3.50;99.90
83650;DHT22;73612;50.948;6.956;2024-01-06T22:35:29;3.50;99.90
83650;DHT22;73612;50.948;6.956;2024-01-06T22:38:00;3.50;99.90
83650;DHT22;73612;50.948;6.956;2024-01-06T22:46:06;3.50;99.90
83650;DHT22;73612;50.948;6.956;2024-01-06T22:51:25;3.60;99.90
83650;DHT22;73612;50.948;6.956;2024-01-06T22:53:58;3.60;99.90
83650;DHT22;73612;50.948;6.956;2024-01-06T22:56:26;3.60;99.90
83650;DHT22;73612;50.948;6.956;2024-01-06T22:58:54;3.50;99.90
83650;DHT22;73612;50.948;6.956;2024-01-06T23:01:23;3.60;99.90
83650;DHT22;73612;50.948;6.956;2024-01-06T23:03:54;3.50;99.90
83650;DHT22;73612;50.948;6.956;2024-01-06T23:06:22;3.50;99.90
83650;DHT22;73612;50.948;6.956;2024-01-06T23:08:54;3.60;99.90
83650;DHT22;73612;50.948;6.956;2024-01-06T23:11:22;3.60;99.90
83650;DHT22;73612;50.948;6.956;2024-01-06T23:13:49;3.60;99.90
83650;DHT22;73612;50.948;6.956;2024-01-06T23:19:10;3.80;99.90
83650;DHT22;73612;50.948;6.956;2024-01-06T23:21:42;3.70;99.90
83650;DHT22;73612;50.948;6.956;2024-01-06T23:24:46;3.70;99.90
83650;DHT22;73612;50.948;6.956;2024-01-06T23:35:51;3.70;99.90
83650;DHT22;73612;50.948;6.956;2024-01-06T23:38:20;3.60;99.90
83650;DHT22;73612;50.948;6.956;2024-01-06T23:41:06;3.60;99.90
83650;DHT22;73612;50.948;6.956;2024-01-06T23:43:44;3.60;99.90
83650;DHT22;73612;50.948;6.956;2024-01-06T23:46:23;3.60;99.90
83650;DHT22;73612;50.948;6.956;2024-01-06T23:48:59;3.60;99.90
83650;DHT22;73612;50.948;6.956;2024-01-06T23:51:31;3.60;99.90
